Time;durP1;ratioP1;P1;durP2;ratioP2;P2;SDS_P1;SDS_P2;PMS_P1;PMS_P2;Temp;Humidity;BMP_temperature;BMP_pressure;BME280_temperature;BME280_humidity;BME280_pressure;Samples;Min_cycle;Max_cycle;Signal;HPM_P1;HPM_P2
2023/01/03 00:01:39;;;;;;;28.70;15.18;;;;;;;3.58;100.00;102402.38;5077655;28;20016;-76
2023/01/03 00:04:05;;;;;;;28.55;14.60;;;;;;;3.52;100.00;102393.25;5084830;28;20453;-73
2023/01/03 00:06:33;;;;;;;29.38;15.27;;;;;;;3.43;100.00;102397.13;5082479;28;20096;-72
2023/01/03 00:09:00;;;;;;;28.67;14.90;;;;;;;3.35;100.00;102394.88;5083478;28;20040;-77
2023/01/03 00:14:18;;;;;;;28.05;15.38;;;;;;;3.25;100.00;102398.69;5077954;28;20395;-72
2023/01/03 00:16:43;;;;;;;28.95;15.68;;;;;;;3.27;100.00;102392.72;5078274;28;20020;-79
2023/01/03 00:19:11;;;;;;;30.27;16.48;;;;;;;3.30;100.00;102400.72;5084716;28;20039;-72
2023/01/03 00:21:37;;;;;;;31.73;16.85;;;;;;;3.28;100.00;102394.53;5081323;28;20024;-73
2023/01/03 00:24:03;;;;;;;30.30;16.85;;;;;;;3.22;100.00;102401.09;5084119;28;20089;-72
2023/01/03 00:26:29;;;;;;;28.95;16.23;;;;;;;3.20;100.00;102392.25;5063965;28;20094;-74
2023/01/03 00:28:54;;;;;;;30.65;16.33;;;;;;;3.04;100.00;102385.22;5082692;28;20387;-73
2023/01/03 00:31:20;;;;;;;30.05;16.52;;;;;;;3.03;100.00;102396.47;5083639;28;20444;-73
2023/01/03 00:33:46;;;;;;;30.85;16.77;;;;;;;2.93;100.00;102393.31;5081309;28;20052;-76
2023/01/03 00:36:11;;;;;;;30.02;16.52;;;;;;;2.92;100.00;102393.22;5084491;28;20034;-73
2023/01/03 00:38:37;;;;;;;30.70;17.88;;;;;;;2.95;100.00;102404.75;5081151;28;20024;-73
2023/01/03 00:41:08;;;;;;;29.95;17.73;;;;;;;2.95;100.00;102406.47;5082498;28;20089;-74
2023/01/03 00:43:34;;;;;;;32.05;18.50;;;;;;;2.96;100.00;102403.06;5081299;28;20025;-73
2023/01/03 00:46:00;;;;;;;32.33;19.00;;;;;;;2.97;100.00;102411.00;5083589;28;20399;-75
2023/01/03 00:48:26;;;;;;;33.28;19.15;;;;;;;3.00;100.00;102409.38;5082432;28;20024;-73
2023/01/03 00:50:52;;;;;;;33.30;20.08;;;;;;;3.01;100.00;102416.41;5081879;28;20032;-73
2023/01/03 00:53:18;;;;;;;33.28;19.60;;;;;;;2.93;100.00;102423.78;5065902;28;20032;-74
2023/01/03 00:55:43;;;;;;;32.92;19.98;;;;;;;2.83;100.00;102418.81;5062791;28;20028;-74
2023/01/03 00:58:08;;;;;;;37.78;21.48;;;;;;;2.88;100.00;102417.38;5084092;28;20089;-73
2023/01/03 01:00:34;;;;;;;34.05;20.88;;;;;;;2.84;100.00;102416.28;5081439;28;20033;-74
2023/01/03 01:02:59;;;;;;;33.25;20.58;;;;;;;2.82;100.00;102428.34;5082821;28;20068;-73
2023/01/03 01:05:24;;;;;;;33.95;20.83;;;;;;;2.79;100.00;102423.81;5082570;28;20056;-74
2023/01/03 01:07:50;;;;;;;34.78;22.17;;;;;;;2.79;100.00;102428.16;5081555;28;20490;-77
2023/01/03 01:10:18;;;;;;;35.22;21.85;;;;;;;2.76;100.00;102426.25;5083613;28;20478;-73
2023/01/03 01:12:44;;;;;;;36.30;21.98;;;;;;;2.74;100.00;102424.38;5080866;28;20029;-72
2023/01/03 01:15:10;;;;;;;38.03;22.95;;;;;;;2.76;100.00;102434.09;5083990;28;20013;-72
2023/01/03 01:17:35;;;;;;;33.72;22.05;;;;;;;2.73;100.00;102433.00;5062848;28;20119;-80
2023/01/03 01:20:00;;;;;;;36.75;22.48;;;;;;;2.74;100.00;102430.50;5085061;28;20028;-72
2023/01/03 01:22:26;;;;;;;36.75;21.65;;;;;;;2.69;100.00;102433.63;5068030;28;20040;-72
2023/01/03 01:24:51;;;;;;;35.25;22.45;;;;;;;2.67;100.00;102438.75;5085553;28;20511;-72
2023/01/03 01:27:16;;;;;;;35.53;22.90;;;;;;;2.58;100.00;102459.09;5087514;28;20361;-77
2023/01/03 01:29:42;;;;;;;38.17;23.42;;;;;;;2.57;100.00;102447.72;5084428;28;20440;-85
2023/01/03 01:32:07;;;;;;;37.45;22.88;;;;;;;2.53;100.00;102447.44;5087813;28;20036;-73
2023/01/03 01:34:33;;;;;;;39.33;23.38;;;;;;;2.46;100.00;102447.84;5085173;28;20399;-72
2023/01/03 01:36:58;;;;;;;38.35;23.52;;;;;;;2.42;100.00;102452.00;5086387;28;20032;-74
2023/01/03 01:39:26;;;;;;;38.33;23.42;;;;;;;2.33;100.00;102454.91;5086428;28;20036;-75
2023/01/03 01:45:03;;;;;;;38.22;24.98;;;;;;;2.32;100.00;102455.72;5081343;28;20099;-74
2023/01/03 01:47:31;;;;;;;40.53;25.23;;;;;;;2.25;100.00;102459.63;5085750;28;20032;-73
2023/01/03 01:49:59;;;;;;;38.50;25.33;;;;;;;2.21;100.00;102461.94;5085972;28;20029;-82
2023/01/03 01:52:27;;;;;;;38.70;25.30;;;;;;;2.16;100.00;102471.19;5085761;28;20064;-72
2023/01/03 01:54:53;;;;;;;40.78;25.67;;;;;;;2.09;100.00;102473.38;5085381;28;20100;-72
2023/01/03 01:57:22;;;;;;;39.22;25.70;;;;;;;2.05;100.00;102481.84;5086459;28;20052;-73
2023/01/03 01:59:48;;;;;;;40.85;26.70;;;;;;;1.99;100.00;102476.22;5084378;28;20027;-77
2023/01/03 02:02:18;;;;;;;40.97;26.13;;;;;;;1.94;100.00;102482.84;5087297;28;20036;-74
2023/01/03 02:04:46;;;;;;;41.70;26.02;;;;;;;1.95;100.00;102474.19;5084050;28;20028;-73
2023/01/03 02:07:12;;;;;;;40.70;26.33;;;;;;;1.97;100.00;102470.00;5079994;28;20036;-74
2023/01/03 02:09:37;;;;;;;42.88;28.90;;;;;;;2.01;100.00;102471.09;5086960;28;20028;-73
2023/01/03 02:15:20;;;;;;;44.83;27.58;;;;;;;1.87;100.00;102463.28;5084919;28;20469;-74
2023/01/03 02:17:59;;;;;;;42.75;27.52;;;;;;;1.82;100.00;102461.16;5081107;28;20412;-74
2023/01/03 02:20:37;;;;;;;41.00;26.95;;;;;;;1.81;100.00;102469.81;5085727;28;20032;-74
2023/01/03 02:23:15;;;;;;;41.83;27.30;;;;;;;1.78;100.00;102465.28;5086270;28;20021;-74
2023/01/03 02:26:15;;;;;;;43.53;27.98;;;;;;;1.73;100.00;102479.72;5079370;28;20052;-73
2023/01/03 02:29:27;;;;;;;41.30;27.80;;;;;;;1.67;100.00;102481.91;5083448;28;20467;-73
2023/01/03 02:32:22;;;;;;;42.10;27.38;;;;;;;1.55;100.00;102482.00;5084227;28;20056;-74
2023/01/03 02:35:05;;;;;;;42.63;27.38;;;;;;;1.53;100.00;102483.59;5080821;28;20025;-74
2023/01/03 02:37:30;;;;;;;41.08;27.88;;;;;;;1.50;100.00;102479.09;5084301;28;20085;-73
2023/01/03 02:40:21;;;;;;;43.63;27.98;;;;;;;1.50;100.00;102478.16;5084750;28;20032;-73
2023/01/03 02:43:01;;;;;;;45.45;28.73;;;;;;;1.53;100.00;102471.47;5080410;28;20479;-73
2023/01/03 02:45:29;;;;;;;44.60;28.40;;;;;;;1.53;100.00;102483.59;5084718;28;20032;-73
2023/01/03 02:48:03;;;;;;;41.97;27.55;;;;;;;1.55;100.00;102471.56;5084480;28;20525;-73
2023/01/03 02:50:35;;;;;;;46.00;28.05;;;;;;;1.53;100.00;102478.38;5084458;28;20032;-73
2023/01/03 02:53:07;;;;;;;45.75;27.75;;;;;;;1.53;100.00;102473.16;5085198;28;20025;-73
2023/01/03 02:55:36;;;;;;;44.58;28.60;;;;;;;1.51;100.00;102479.97;5083718;28;20028;-73
2023/01/03 02:58:16;;;;;;;44.50;28.30;;;;;;;1.56;100.00;102476.88;5085337;28;20028;-73
2023/01/03 03:00:47;;;;;;;46.33;28.55;;;;;;;1.67;100.00;102472.38;5079230;28;20051;-73
2023/01/03 03:03:15;;;;;;;45.03;28.33;;;;;;;1.72;100.00;102478.81;5078943;28;20029;-75
2023/01/03 03:06:05;;;;;;;45.50;28.02;;;;;;;1.68;100.00;102471.59;5078752;28;20078;-73
2023/01/03 03:08:30;;;;;;;44.60;27.77;;;;;;;1.80;100.00;102473.22;5083468;28;20471;-74
2023/01/03 03:13:57;;;;;;;46.15;27.67;;;;;;;1.75;100.00;102475.53;5079002;28;20112;-73
2023/01/03 03:25:50;;;;;;;44.47;25.65;;;;;;;1.80;100.00;102479.31;5046198;28;20117;-73
2023/01/03 03:28:35;;;;;;;44.83;25.65;;;;;;;1.77;100.00;102478.22;5079178;28;20469;-74
2023/01/03 03:31:07;;;;;;;46.25;26.70;;;;;;;1.80;100.00;102478.44;5065427;28;20016;-73
2023/01/03 03:33:41;;;;;;;44.28;26.98;;;;;;;1.80;100.00;102479.31;5084553;28;20027;-74
2023/01/03 03:36:18;;;;;;;45.03;26.50;;;;;;;1.75;100.00;102483.34;5082430;28;20025;-73
2023/01/03 03:38:44;;;;;;;45.33;26.42;;;;;;;1.76;100.00;102474.69;5078418;28;20024;-74
2023/01/03 03:47:03;;;;;;;45.88;26.85;;;;;;;1.67;100.00;102472.38;5081218;28;20071;-74
2023/01/03 03:49:39;;;;;;;43.70;26.42;;;;;;;1.68;100.00;102475.91;5065359;28;20059;-77
2023/01/03 03:52:15;;;;;;;47.10;27.52;;;;;;;1.68;100.00;102479.41;5084657;28;20115;-73
2023/01/03 03:54:48;;;;;;;45.22;27.67;;;;;;;1.70;100.00;102475.22;5077750;28;20032;-74
2023/01/03 03:57:19;;;;;;;;;;;;;;;1.73;100.00;102477.09;5078375;28;20020;-73
2023/01/03 03:59:51;;;;;;;44.33;26.30;;;;;;;1.74;100.00;102464.16;5078249;28;20322;-73
2023/01/03 04:02:18;;;;;;;45.70;27.40;;;;;;;1.71;100.00;102469.19;5085119;28;20048;-73
2023/01/03 04:04:48;;;;;;;46.58;28.60;;;;;;;1.70;100.00;102480.44;5081522;28;20035;-75
2023/01/03 04:07:14;;;;;;;46.70;27.27;;;;;;;1.73;100.00;102474.50;5077648;28;20025;-73
2023/01/03 04:09:39;;;;;;;46.08;27.30;;;;;;;1.77;100.00;102475.63;5084900;28;20028;-73
2023/01/03 04:12:05;;;;;;;46.40;28.35;;;;;;;1.73;100.00;102480.63;5081995;28;20032;-74
2023/01/03 04:14:31;;;;;;;46.05;27.65;;;;;;;1.70;100.00;102474.28;5083370;28;20025;-73
2023/01/03 04:16:56;;;;;;;45.80;26.95;;;;;;;1.66;100.00;102483.63;5083404;28;20123;-74
2023/01/03 04:19:21;;;;;;;47.00;28.20;;;;;;;1.69;100.00;102469.88;5082062;28;20028;-73
2023/01/03 04:21:47;;;;;;;44.33;27.70;;;;;;;1.67;100.00;102467.16;5084300;28;20032;-71
2023/01/03 04:24:12;;;;;;;42.30;27.85;;;;;;;1.70;100.00;102470.00;5081361;28;20456;-72
2023/01/03 04:26:37;;;;;;;47.08;28.55;;;;;;;1.76;100.00;102471.19;5084220;28;20052;-75
2023/01/03 04:29:03;;;;;;;47.97;28.40;;;;;;;1.69;100.00;102469.88;5081945;28;20064;-72
2023/01/03 04:31:28;;;;;;;46.75;28.00;;;;;;;1.69;100.00;102476.00;5065140;28;20089;-73
2023/01/03 04:33:53;;;;;;;45.80;28.10;;;;;;;1.63;100.00;102470.41;5083180;28;20051;-72
2023/01/03 04:36:19;;;;;;;46.05;28.00;;;;;;;1.56;100.00;102470.78;5081559;28;20031;-72
2023/01/03 04:38:45;;;;;;;49.35;28.65;;;;;;;1.53;100.00;102462.72;5084916;28;20089;-72
2023/01/03 04:41:10;;;;;;;45.75;29.00;;;;;;;1.52;100.00;102471.38;5076861;28;20024;-74
2023/01/03 04:46:20;;;;;;;49.53;30.77;;;;;;;1.45;100.00;102475.25;5079181;28;20132;-74
2023/01/03 04:48:45;;;;;;;53.03;32.30;;;;;;;1.49;100.00;102482.50;5084099;28;20108;-72
2023/01/03 04:51:11;;;;;;;52.67;32.83;;;;;;;1.47;100.00;102475.34;5080892;28;20037;-85
2023/01/03 04:53:37;;;;;;;57.22;33.55;;;;;;;1.52;100.00;102481.81;5083913;28;20025;-72
2023/01/03 04:56:02;;;;;;;56.17;34.25;;;;;;;1.52;100.00;102471.38;5081817;28;20111;-78
2023/01/03 04:58:27;;;;;;;57.47;33.58;;;;;;;1.47;100.00;102476.28;5064418;28;20020;-75
2023/01/03 05:00:59;;;;;;;54.47;33.90;;;;;;;1.45;100.00;102476.97;5083254;28;20398;-72
2023/01/03 05:03:25;;;;;;;58.97;34.60;;;;;;;1.46;100.00;102471.88;5082009;28;20077;-73
2023/01/03 05:05:50;;;;;;;58.88;34.38;;;;;;;1.47;100.00;102475.34;5083476;28;20115;-73
2023/01/03 05:08:15;;;;;;;58.88;34.70;;;;;;;1.54;100.00;102469.75;5080687;28;20060;-75
2023/01/03 05:10:41;;;;;;;60.80;36.17;;;;;;;1.55;100.00;102454.22;5084443;28;20036;-75
2023/01/03 05:13:07;;;;;;;59.95;35.40;;;;;;;1.58;100.00;102456.13;5081148;28;20032;-73
2023/01/03 05:15:37;;;;;;;61.47;35.97;;;;;;;1.54;100.00;102464.53;5083063;28;20028;-73
2023/01/03 05:18:03;;;;;;;62.00;35.58;;;;;;;1.51;100.00;102465.22;5081594;28;20356;-75
2023/01/03 05:26:02;;;;;;;61.05;34.35;;;;;;;1.51;100.00;102461.75;5080686;28;20185;-73
2023/01/03 05:28:28;;;;;;;56.78;32.63;;;;;;;1.49;100.00;102458.13;5082340;28;20024;-77
2023/01/03 05:30:53;;;;;;;59.58;32.70;;;;;;;1.51;100.00;102457.41;5081517;28;20036;-73
2023/01/03 05:33:18;;;;;;;54.75;31.13;;;;;;;1.55;100.00;102451.63;5083386;28;20036;-76
2023/01/03 05:35:46;;;;;;;52.03;29.77;;;;;;;1.56;100.00;102455.16;5080846;28;20040;-74
2023/01/03 05:38:12;;;;;;;52.80;30.48;;;;;;;1.59;100.00;102452.72;5076298;28;20025;-73
2023/01/03 05:40:37;;;;;;;53.85;29.42;;;;;;;1.60;100.00;102451.03;5083221;28;20027;-75
2023/01/03 05:43:02;;;;;;;53.85;29.85;;;;;;;1.61;100.00;102445.91;5063524;28;20028;-73
2023/01/03 05:45:28;;;;;;;49.70;28.45;;;;;;;1.64;100.00;102438.28;5081938;28;20115;-74
2023/01/03 05:47:56;;;;;;;51.60;29.92;;;;;;;1.67;100.00;102443.69;5082837;28;20105;-73
2023/01/03 05:50:21;;;;;;;50.50;28.83;;;;;;;1.67;100.00;102450.63;5081329;28;20110;-73
2023/01/03 05:52:47;;;;;;;49.53;28.48;;;;;;;1.73;100.00;102451.03;5083463;28;20052;-73
2023/01/03 05:55:13;;;;;;;47.85;27.10;;;;;;;1.73;100.00;102448.41;5080229;28;20387;-73
2023/01/03 05:57:38;;;;;;;50.53;26.75;;;;;;;1.79;100.00;102445.31;5080604;28;20044;-74
2023/01/03 06:00:04;;;;;;;52.85;27.60;;;;;;;1.86;100.00;102445.81;5082621;28;20468;-73
2023/01/03 06:02:29;;;;;;;52.58;26.80;;;;;;;1.95;100.00;102447.22;5081569;28;20390;-73
2023/01/03 06:04:55;;;;;;;48.55;27.58;;;;;;;1.99;100.00;102438.78;5081506;28;20028;-74
2023/01/03 06:07:20;;;;;;;49.03;26.92;;;;;;;2.11;100.00;102438.69;5086421;28;20034;-71
2023/01/03 06:09:45;;;;;;;46.80;25.52;;;;;;;2.18;100.00;102433.06;5083921;28;20118;-72
2023/01/03 06:12:11;;;;;;;51.28;26.23;;;;;;;2.23;100.00;102435.16;5086972;28;20028;-75
2023/01/03 06:14:36;;;;;;;46.67;24.70;;;;;;;2.30;100.00;102428.63;5084244;28;20028;-72
2023/01/03 06:19:45;;;;;;;46.17;25.60;;;;;;;2.43;100.00;102431.19;5080557;28;20522;-72
2023/01/03 06:22:10;;;;;;;44.53;24.95;;;;;;;2.48;100.00;102428.88;5068647;28;20036;-74
2023/01/03 06:24:36;;;;;;;44.53;25.45;;;;;;;2.54;100.00;102430.97;5084058;28;20024;-78
2023/01/03 06:27:01;;;;;;;44.67;24.60;;;;;;;2.57;100.00;102432.03;5078592;28;20517;-81
2023/01/03 06:29:26;;;;;;;44.20;24.45;;;;;;;2.60;100.00;102427.00;5080067;28;20384;-81
2023/01/03 06:31:52;;;;;;;43.35;24.08;;;;;;;2.64;100.00;102422.91;5078036;28;20043;-83
2023/01/03 06:34:17;;;;;;;44.53;24.33;;;;;;;2.70;100.00;102422.38;5082549;28;20024;-86
2023/01/03 06:36:42;;;;;;;42.45;23.42;;;;;;;2.69;100.00;102426.69;5079845;28;20112;-83
2023/01/03 06:39:08;;;;;;;42.33;23.73;;;;;;;2.71;100.00;102418.94;5077520;28;20086;-81
2023/01/03 06:41:33;;;;;;;42.63;23.42;;;;;;;2.67;100.00;102427.41;5078568;28;20105;-82
2023/01/03 06:43:59;;;;;;;42.47;23.48;;;;;;;2.64;100.00;102422.91;5051541;28;20028;-90
2023/01/03 06:54:54;;;;;;;42.42;23.02;;;;;;;2.60;100.00;102420.91;5053151;28;20040;-82
2023/01/03 06:57:19;;;;;;;41.60;23.38;;;;;;;2.65;100.00;102398.59;5073566;28;20049;-84
2023/01/03 06:59:45;;;;;;;41.45;23.00;;;;;;;2.68;100.00;102398.78;5075876;28;20032;-78
2023/01/03 07:02:10;;;;;;;44.28;24.27;;;;;;;2.67;100.00;102398.69;5082194;28;20040;-80
2023/01/03 07:04:35;;;;;;;44.00;22.77;;;;;;;2.61;100.00;102402.72;5078080;28;20035;-78
2023/01/03 07:07:01;;;;;;;41.45;22.13;;;;;;;2.60;100.00;102416.56;5084267;28;20355;-79
2023/01/03 07:09:26;;;;;;;41.63;22.27;;;;;;;2.67;100.00;102406.53;5082042;28;20071;-77
2023/01/03 07:11:52;;;;;;;40.75;22.88;;;;;;;2.65;100.00;102403.81;5081208;28;20021;-80
2023/01/03 07:14:17;;;;;;;41.78;23.65;;;;;;;2.65;100.00;102419.50;5058605;28;20494;-83
2023/01/03 07:16:47;;;;;;;43.63;22.90;;;;;;;2.69;100.00;102442.34;5062883;28;20096;-82
2023/01/03 07:19:19;;;;;;;40.65;21.75;;;;;;;2.95;100.00;102464.84;5076724;28;20466;-80
2023/01/03 07:21:45;;;;;;;43.88;23.27;;;;;;;3.08;100.00;102461.28;5059314;28;20034;-80
2023/01/03 07:24:13;;;;;;;42.22;22.50;;;;;;;3.21;100.00;102449.84;5076551;28;20035;-81
2023/01/03 07:26:39;;;;;;;49.63;23.50;;;;;;;3.33;100.00;102448.78;5078085;28;20136;-78
2023/01/03 07:29:07;;;;;;;44.17;22.27;;;;;;;3.39;100.00;102454.38;5082000;28;20067;-80
2023/01/03 07:31:32;;;;;;;42.47;23.17;;;;;;;3.44;100.00;102446.00;5074163;28;20028;-80
2023/01/03 07:33:59;;;;;;;44.05;21.55;;;;;;;3.52;100.00;102448.16;5075501;28;20039;-78
2023/01/03 07:36:24;;;;;;;43.28;22.30;;;;;;;3.51;100.00;102449.88;5064518;28;20025;-82
2023/01/03 07:38:50;;;;;;;42.90;22.13;;;;;;;3.55;100.00;102437.88;5078465;28;20386;-86
2023/01/03 07:41:16;;;;;;;46.15;23.20;;;;;;;3.51;100.00;102451.56;5079862;28;20028;-83
2023/01/03 07:43:45;;;;;;;42.08;21.70;;;;;;;3.55;100.00;102448.34;5071114;28;20029;-84
2023/01/03 07:46:14;;;;;;;45.33;22.35;;;;;;;3.53;100.00;102448.25;5067099;28;20399;-83
2023/01/03 07:48:41;;;;;;;44.40;22.48;;;;;;;3.55;100.00;102449.22;5091863;28;20036;-83
2023/01/03 07:51:08;;;;;;;45.75;22.98;;;;;;;3.50;100.00;102458.53;5081936;28;20032;-86
2023/01/03 07:53:35;;;;;;;44.47;22.77;;;;;;;3.51;100.00;102460.34;5058942;28;20032;-85
2023/01/03 07:56:06;;;;;;;46.10;22.83;;;;;;;3.51;100.00;102467.28;5056765;28;20040;-85
2023/01/03 07:58:32;;;;;;;45.75;22.27;;;;;;;3.60;100.00;102470.44;5060409;28;20033;-84
2023/01/03 08:01:18;;;;;;;46.05;22.85;;;;;;;3.54;100.00;102464.84;5063869;28;20111;-85
2023/01/03 08:03:44;;;;;;;47.97;23.38;;;;;;;3.45;100.00;102466.13;5080535;28;20029;-86
2023/01/03 08:06:13;;;;;;;46.65;23.63;;;;;;;3.46;100.00;102467.91;5076645;28;20372;-80
2023/01/03 08:08:38;;;;;;;45.65;23.55;;;;;;;3.54;100.00;102473.59;5079398;28;20032;-73
2023/01/03 08:13:49;;;;;;;47.65;23.70;;;;;;;3.62;100.00;102480.16;5071499;28;20126;-77
2023/01/03 08:16:16;;;;;;;47.42;23.75;;;;;;;3.68;100.00;102482.25;5081492;28;20052;-74
2023/01/03 08:18:42;;;;;;;48.13;23.58;;;;;;;3.72;100.00;102494.69;5077749;28;20108;-81
2023/01/03 08:21:10;;;;;;;48.08;24.77;;;;;;;3.73;100.00;102485.13;5067764;28;20063;-85
2023/01/03 08:23:36;;;;;;;51.45;25.27;;;;;;;3.79;100.00;102494.25;5075969;28;20033;-85
2023/01/03 08:26:05;;;;;;;50.58;25.67;;;;;;;3.82;100.00;102502.25;5060145;28;20486;-84
2023/01/03 08:28:31;;;;;;;49.70;24.98;;;;;;;3.89;100.00;102494.75;5080238;28;20098;-88
2023/01/03 08:30:58;;;;;;;47.88;25.20;;;;;;;3.94;100.00;102499.44;5079067;28;20073;-86
2023/01/03 08:33:26;;;;;;;49.45;25.08;;;;;;;3.96;100.00;102483.84;5083738;28;20028;-86
2023/01/03 08:35:59;;;;;;;47.00;24.58;;;;;;;3.98;100.00;102479.63;5079514;28;20016;-83
2023/01/03 08:38:32;;;;;;;52.20;25.25;;;;;;;3.98;100.00;102485.75;5072877;28;20082;-85
2023/01/03 08:41:00;;;;;;;52.78;25.98;;;;;;;4.07;100.00;102487.09;5081135;28;20044;-86
2023/01/03 08:43:27;;;;;;;48.88;25.42;;;;;;;4.09;100.00;102489.00;5065351;28;20080;-85
2023/01/03 08:45:53;;;;;;;49.67;25.05;;;;;;;4.11;100.00;102483.84;5053219;28;20028;-86
2023/01/03 08:48:21;;;;;;;48.88;24.95;;;;;;;4.20;100.00;102502.69;5078697;28;20382;-86
2023/01/03 08:50:47;;;;;;;50.83;25.05;;;;;;;4.12;100.00;102483.91;5078889;28;20774;-86
2023/01/03 08:53:12;;;;;;;53.30;25.73;;;;;;;4.29;100.00;102504.91;5078690;28;20459;-86
2023/01/03 08:55:38;;;;;;;50.03;25.60;;;;;;;4.25;100.00;102497.69;5071631;28;20478;-84
2023/01/03 08:58:03;;;;;;;50.53;25.38;;;;;;;4.32;100.00;102510.31;5054914;28;20028;-87
2023/01/03 09:00:29;;;;;;;50.40;25.35;;;;;;;4.35;100.00;102513.09;5078122;28;20032;-87
2023/01/03 09:03:00;;;;;;;49.90;26.90;;;;;;;4.45;100.00;102514.53;5072239;28;20052;-85
2023/01/03 09:05:27;;;;;;;47.78;24.13;;;;;;;4.48;100.00;102510.34;5070730;28;20040;-88
2023/01/03 09:07:53;;;;;;;48.80;25.92;;;;;;;4.48;100.00;102515.59;5082505;28;20114;-86
2023/01/03 09:10:20;;;;;;;51.05;24.77;;;;;;;4.47;100.00;102508.56;5054036;28;20032;-87
2023/01/03 09:12:45;;;;;;;49.03;25.38;;;;;;;4.53;100.00;102518.50;5055276;28;20032;-83
2023/01/03 09:15:10;;;;;;;48.22;25.40;;;;;;;4.55;100.00;102516.84;5052162;28;20471;-82
2023/01/03 09:17:36;;;;;;;48.00;24.95;;;;;;;4.61;100.00;102529.38;5074222;28;20107;-85
2023/01/03 09:20:01;;;;;;;50.92;25.42;;;;;;;4.62;100.00;102525.97;5057805;28;20083;-77
2023/01/03 09:22:27;;;;;;;51.40;26.13;;;;;;;4.62;100.00;102524.22;5078323;28;20040;-84
2023/01/03 09:24:53;;;;;;;46.92;23.95;;;;;;;4.67;100.00;102522.75;5077383;28;20036;-80
2023/01/03 09:27:19;;;;;;;48.45;24.48;;;;;;;4.72;100.00;102530.88;5047631;28;20047;-80
2023/01/03 09:29:44;;;;;;;48.80;25.17;;;;;;;4.76;100.00;102526.69;5082529;28;20371;-86
2023/01/03 09:32:09;;;;;;;48.40;25.38;;;;;;;4.75;100.00;102517.94;5062316;28;20390;-85
2023/01/03 09:34:35;;;;;;;49.25;24.75;;;;;;;4.76;100.00;102517.16;5059236;28;20029;-83
2023/01/03 09:37:02;;;;;;;43.63;22.48;;;;;;;4.83;100.00;102526.22;5056336;28;20036;-79
2023/01/03 09:39:27;;;;;;;44.00;21.80;;;;;;;4.88;100.00;102532.63;5072734;28;20055;-82
2023/01/03 09:44:39;;;;;;;45.33;22.15;;;;;;;4.93;100.00;102530.25;5049779;28;20041;-77
2023/01/03 09:47:05;;;;;;;42.17;21.88;;;;;;;4.94;100.00;102526.81;5072326;28;20037;-74
2023/01/03 09:49:31;;;;;;;45.00;22.73;;;;;;;4.97;100.00;102529.63;5083826;28;20089;-84
2023/01/03 10:03:45;;;;;;;39.88;20.58;;;;;;;5.14;100.00;102515.69;5088040;28;20047;-93
2023/01/03 10:06:15;;;;;;;39.22;18.88;;;;;;;5.19;100.00;102508.94;5080308;28;20487;-83
2023/01/03 10:09:22;;;;;;;36.13;18.08;;;;;;;5.25;100.00;102511.00;5074267;28;20037;-82
2023/01/03 10:12:25;;;;;;;35.28;18.20;;;;;;;5.31;100.00;102518.28;5055707;28;20049;-85
2023/01/03 10:15:08;;;;;;;35.17;17.73;;;;;;;5.37;100.00;102515.97;5084245;28;20109;-85
2023/01/03 10:17:55;;;;;;;35.28;18.15;;;;;;;5.42;100.00;102511.88;5081136;28;20056;-91
2023/01/03 10:20:32;;;;;;;33.80;17.10;;;;;;;5.44;100.00;102525.09;5080358;28;20032;-84
2023/01/03 10:22:57;;;;;;;32.65;16.05;;;;;;;5.47;100.00;102514.75;5076503;28;20052;-84
2023/01/03 10:25:23;;;;;;;31.58;16.00;;;;;;;5.49;100.00;102516.63;5075891;28;20036;-85
2023/01/03 10:27:50;;;;;;;31.63;15.27;;;;;;;5.55;100.00;102516.06;5079960;28;20122;-83
2023/01/03 10:30:52;;;;;;;31.50;15.00;;;;;;;5.55;100.00;102521.31;5080503;28;20116;-88
2023/01/03 10:33:33;;;;;;;31.38;15.55;;;;;;;5.65;100.00;102525.28;5065754;28;20491;-86
2023/01/03 10:35:59;;;;;;;32.65;16.63;;;;;;;5.67;100.00;102519.28;5070128;28;20047;-84
2023/01/03 10:38:25;;;;;;;29.83;14.68;;;;;;;5.72;100.00;102519.53;5081573;28;20082;-85
2023/01/03 10:41:02;;;;;;;28.70;14.57;;;;;;;5.76;100.00;102524.09;5081310;28;20480;-89
2023/01/03 10:43:29;;;;;;;28.30;13.40;;;;;;;5.78;100.00;102518.94;5092757;28;20086;-89
2023/01/03 10:45:56;;;;;;;29.30;13.43;;;;;;;5.83;100.00;102527.97;5058003;28;20464;-79
2023/01/03 10:48:22;;;;;;;28.55;12.90;;;;;;;5.90;100.00;102515.22;5063125;28;20094;-76
2023/01/03 10:50:49;;;;;;;26.15;13.57;;;;;;;5.91;100.00;102523.97;5080942;28;20057;-75
2023/01/03 10:53:18;;;;;;;27.27;13.45;;;;;;;5.96;100.00;102506.75;5078427;28;20032;-75
2023/01/03 10:55:47;;;;;;;28.20;13.25;;;;;;;6.01;100.00;102515.75;5080118;28;20028;-75
2023/01/03 10:58:25;;;;;;;27.88;12.70;;;;;;;6.00;100.00;102508.75;5077296;28;20031;-75
2023/01/03 11:01:09;;;;;;;27.48;11.98;;;;;;;6.01;100.00;102510.50;5081226;28;20082;-76
2023/01/03 11:03:36;;;;;;;26.48;12.20;;;;;;;6.00;100.00;102506.13;5081595;28;20023;-75
2023/01/03 11:06:01;;;;;;;26.85;12.55;;;;;;;6.02;100.00;102495.69;5079600;28;20039;-75
2023/01/03 11:08:36;;;;;;;25.30;12.23;;;;;;;6.03;100.00;102502.72;5077395;28;20029;-77
2023/01/03 11:11:01;;;;;;;27.48;12.45;;;;;;;6.02;100.00;102501.81;5083842;28;20101;-76
2023/01/03 11:13:33;;;;;;;25.88;12.45;;;;;;;6.07;100.00;102504.66;5083764;28;20031;-77
2023/01/03 11:16:02;;;;;;;26.63;11.50;;;;;;;6.06;100.00;102500.25;5083739;28;20086;-75
2023/01/03 11:18:28;;;;;;;26.38;11.90;;;;;;;6.06;100.00;102498.53;5084257;28;20020;-78
2023/01/03 11:21:03;;;;;;;26.23;11.27;;;;;;;6.09;100.00;102505.66;5064988;28;20119;-76
2023/01/03 11:23:56;;;;;;;24.42;11.20;;;;;;;6.20;100.00;102508.81;5084151;28;20085;-76
2023/01/03 11:26:56;;;;;;;24.92;12.20;;;;;;;6.11;100.00;102504.00;5079978;28;20110;-75
2023/01/03 11:29:43;;;;;;;25.75;11.43;;;;;;;6.11;100.00;102490.88;5080158;28;20079;-82
2023/01/03 11:32:18;;;;;;;25.30;11.80;;;;;;;6.11;100.00;102501.38;5061040;28;20044;-82
2023/01/03 11:35:01;;;;;;;26.95;12.00;;;;;;;6.07;100.00;102500.34;5084922;28;20028;-81
2023/01/03 11:37:29;;;;;;;27.30;12.52;;;;;;;6.01;100.00;102493.88;5084633;28;20094;-83
2023/01/03 11:40:14;;;;;;;24.80;12.38;;;;;;;6.03;100.00;102498.38;5083287;28;20032;-81
2023/01/03 11:43:06;;;;;;;27.05;12.68;;;;;;;6.05;100.00;102501.09;5078690;28;20025;-82
2023/01/03 11:45:34;;;;;;;27.35;12.93;;;;;;;6.06;100.00;102500.25;5082094;28;20036;-81
2023/01/03 11:48:21;;;;;;;25.58;12.60;;;;;;;6.13;100.00;102499.75;5084826;28;20024;-81
2023/01/03 11:51:08;;;;;;;25.00;12.15;;;;;;;6.10;100.00;102487.34;5080720;28;20544;-82
2023/01/03 11:53:59;;;;;;;26.33;11.68;;;;;;;6.09;100.00;102492.53;5080118;28;20036;-83
2023/01/03 11:56:30;;;;;;;25.70;12.48;;;;;;;6.09;100.00;102482.91;5059775;28;20045;-83
2023/01/03 11:59:33;;;;;;;23.60;11.15;;;;;;;6.20;100.00;102491.31;5083301;28;20024;-86
2023/01/03 12:02:29;;;;;;;24.05;10.90;;;;;;;6.33;100.00;102468.28;5076946;28;20036;-88
2023/01/03 12:05:05;;;;;;;21.90;9.20;;;;;;;6.48;100.00;102483.84;5063860;28;20037;-82
2023/01/03 12:08:10;;;;;;;21.15;8.77;;;;;;;6.88;100.00;102470.84;5073504;28;20036;-86
2023/01/03 12:11:00;;;;;;;21.05;8.10;;;;;;;7.35;100.00;102463.25;5075495;28;20131;-83
2023/01/03 12:13:54;;;;;;;20.83;8.13;;;;;;;8.13;100.00;102457.72;5079934;28;20039;-82
2023/01/03 12:16:31;;;;;;;20.90;6.85;;;;;;;8.08;100.00;102451.38;5075909;28;20028;-82
2023/01/03 12:19:31;;;;;;;17.27;5.47;;;;;;;8.38;100.00;102450.78;5077668;28;20021;-82
2023/01/03 12:22:22;;;;;;;17.33;5.47;;;;;;;8.45;100.00;102447.59;5079165;28;20029;-74
2023/01/03 12:24:54;;;;;;;16.48;5.18;;;;;;;7.96;100.00;102440.34;5076566;28;20034;-74
2023/01/03 12:27:27;;;;;;;16.37;5.20;;;;;;;8.14;100.00;102427.91;5068091;28;20044;-84